Time;durP1;ratioP1;P1;durP2;ratioP2;P2;SDS_P1;SDS_P2;PMS_P1;PMS_P2;Temp;Humidity;BMP_temperature;BMP_pressure;BME280_temperature;BME280_humidity;BME280_pressure;Samples;Min_cycle;Max_cycle;Signal;HPM_P1;HPM_P2
2021/07/15 00:01:08;;;;;;;12.23;10.70;;;;;;;20.86;72.20;101080.44;5025493;28;20036;-49
2021/07/15 00:03:34;;;;;;;13.25;11.35;;;;;;;20.84;72.33;101069.06;5024891;28;20021;-48
2021/07/15 00:05:59;;;;;;;16.08;12.00;;;;;;;20.81;72.41;101063.09;5025948;28;20275;-48
2021/07/15 00:08:27;;;;;;;16.00;11.85;;;;;;;20.79;72.39;101051.69;5025523;28;20104;-48
2021/07/15 00:10:54;;;;;;;15.77;11.98;;;;;;;20.79;72.67;101040.00;5024009;28;20037;-47
2021/07/15 00:13:20;;;;;;;15.63;11.82;;;;;;;20.76;72.51;101025.09;5026366;28;20113;-48
2021/07/15 00:15:51;;;;;;;15.05;11.80;;;;;;;20.72;72.89;101024.09;5025060;28;20096;-48
2021/07/15 00:18:22;;;;;;;13.80;11.68;;;;;;;20.69;72.85;101030.19;5026703;28;20029;-47
2021/07/15 00:20:48;;;;;;;13.88;11.60;;;;;;;20.66;72.93;101030.81;5027036;28;20029;-48
2021/07/15 00:23:15;;;;;;;14.48;12.43;;;;;;;20.63;73.32;101016.97;5027307;28;20482;-48
2021/07/15 00:25:42;;;;;;;16.58;12.48;;;;;;;20.58;73.75;101004.28;5022501;28;20144;-48
2021/07/15 00:28:08;;;;;;;13.80;11.93;;;;;;;20.58;73.45;100982.53;5027294;28;20036;-47
2021/07/15 00:30:34;;;;;;;13.98;12.05;;;;;;;20.55;73.59;100993.22;5026718;28;20269;-47
2021/07/15 00:33:00;;;;;;;14.23;11.88;;;;;;;20.47;73.93;101002.94;5026858;28;20032;-47
2021/07/15 00:35:26;;;;;;;13.55;11.63;;;;;;;20.29;74.94;101009.28;5023857;28;20030;-47
2021/07/15 00:37:51;;;;;;;16.77;13.05;;;;;;;20.18;75.46;101014.19;5027069;28;20033;-47
2021/07/15 00:40:17;;;;;;;14.77;11.98;;;;;;;20.25;75.05;101033.59;5026377;28;20424;-47
2021/07/15 00:42:44;;;;;;;14.98;12.20;;;;;;;20.17;75.24;101056.91;5025632;28;20103;-48
2021/07/15 00:45:14;;;;;;;14.80;11.90;;;;;;;20.19;75.02;101064.75;5026030;28;20063;-47
2021/07/15 00:47:40;;;;;;;17.27;13.25;;;;;;;20.15;75.46;101077.34;5025760;28;20029;-48
2021/07/15 00:50:07;;;;;;;17.23;13.00;;;;;;;19.71;78.52;101091.53;5025712;28;20033;-47
2021/07/15 00:52:34;;;;;;;20.40;14.05;;;;;;;19.36;81.07;101101.13;5022821;28;20096;-47
2021/07/15 00:55:00;;;;;;;18.85;14.43;;;;;;;19.25;81.68;101111.38;5026350;28;20180;-48
2021/07/15 00:57:25;;;;;;;19.48;14.07;;;;;;;19.17;81.96;101120.97;5023137;28;20557;-47
2021/07/15 00:59:52;;;;;;;18.23;14.63;;;;;;;19.21;81.56;101124.75;5025589;28;20033;-47
2021/07/15 01:02:18;;;;;;;17.65;13.80;;;;;;;19.40;80.01;101145.63;5025721;28;20037;-47
2021/07/15 01:04:44;;;;;;;15.63;13.63;;;;;;;19.50;79.83;101151.69;5024613;28;20132;-48
2021/07/15 01:07:09;;;;;;;18.83;13.55;;;;;;;19.50;79.29;101159.84;5026160;28;20108;-47
2021/07/15 01:09:36;;;;;;;19.33;14.65;;;;;;;19.46;79.52;101156.09;5026573;28;20071;-47
2021/07/15 01:12:19;;;;;;;16.95;13.63;;;;;;;19.46;79.25;101139.81;5026376;28;20402;-47
2021/07/15 01:15:07;;;;;;;19.25;13.77;;;;;;;19.49;79.37;101141.13;5022346;28;20030;-48
2021/07/15 01:17:46;;;;;;;18.42;14.48;;;;;;;19.59;78.40;101147.22;5015917;28;20241;-48
2021/07/15 01:20:40;;;;;;;16.55;13.45;;;;;;;19.53;78.33;101145.66;5026218;28;20065;-47
2021/07/15 01:23:18;;;;;;;19.00;14.32;;;;;;;19.51;78.12;101147.06;5023081;28;20284;-48
2021/07/15 01:26:07;;;;;;;19.65;15.00;;;;;;;19.44;78.12;101142.00;5025975;28;20432;-48
2021/07/15 01:28:45;;;;;;;16.50;13.85;;;;;;;19.41;77.97;101125.50;5023196;28;20021;-47
2021/07/15 01:31:11;;;;;;;17.73;14.25;;;;;;;19.34;78.36;101134.03;5025886;28;20033;-48
2021/07/15 01:33:39;;;;;;;17.38;14.10;;;;;;;19.32;77.95;101133.50;5024829;28;20115;-48
2021/07/15 01:36:12;;;;;;;20.75;15.68;;;;;;;19.23;78.66;101127.16;5025978;28;20025;-47
2021/07/15 01:38:48;;;;;;;18.08;14.13;;;;;;;19.22;78.53;101130.97;5024574;28;20236;-48
2021/07/15 01:41:24;;;;;;;19.88;14.95;;;;;;;19.21;78.80;101135.59;5024622;28;20060;-48
2021/07/15 01:44:00;;;;;;;17.27;14.13;;;;;;;19.17;79.15;101125.59;5024870;28;20049;-48
2021/07/15 01:46:26;;;;;;;19.10;14.90;;;;;;;19.17;78.79;101120.97;5025162;28;20025;-47
2021/07/15 01:48:52;;;;;;;19.80;14.77;;;;;;;19.16;78.39;101124.00;5025822;28;20040;-47
2021/07/15 01:51:18;;;;;;;17.77;14.13;;;;;;;19.11;78.82;101121.38;5025515;28;20060;-47
2021/07/15 01:53:44;;;;;;;17.55;15.10;;;;;;;19.09;78.80;101110.81;5023231;28;20029;-49
2021/07/15 01:56:11;;;;;;;16.33;13.63;;;;;;;19.05;78.52;101112.50;5025818;28;20391;-48
2021/07/15 01:58:38;;;;;;;23.13;15.55;;;;;;;18.99;78.90;101114.47;5024928;28;20033;-48
2021/07/15 02:01:07;;;;;;;18.23;14.77;;;;;;;18.95;79.18;101116.16;5025558;28;20025;-50
2021/07/15 02:03:35;;;;;;;18.25;13.85;;;;;;;18.93;79.43;101118.38;5023197;28;20047;-50
2021/07/15 02:06:01;;;;;;;18.50;15.07;;;;;;;18.91;79.27;101117.88;5023429;28;20029;-47
2021/07/15 02:08:29;;;;;;;26.15;17.00;;;;;;;18.89;79.56;101128.22;5023330;28;20033;-48
2021/07/15 02:10:55;;;;;;;22.58;15.60;;;;;;;18.86;79.69;101128.81;5025320;28;20151;-48
2021/07/15 02:13:22;;;;;;;26.17;19.27;;;;;;;18.81;80.12;101133.50;5022754;28;20149;-47
2021/07/15 02:15:48;;;;;;;23.02;16.55;;;;;;;18.81;79.84;101128.06;5022664;28;20514;-48
2021/07/15 02:18:17;;;;;;;24.23;16.83;;;;;;;18.82;80.10;101130.47;5024070;28;20086;-47
2021/07/15 02:20:45;;;;;;;20.95;16.67;;;;;;;18.74;80.34;101136.59;5022669;28;20406;-48
2021/07/15 02:23:12;;;;;;;24.83;18.40;;;;;;;18.76;80.61;101137.09;5024673;28;20053;-49
2021/07/15 02:25:39;;;;;;;22.77;16.60;;;;;;;18.73;80.71;101142.31;5025288;28;20374;-47
2021/07/15 02:28:10;;;;;;;23.98;15.80;;;;;;;18.65;81.13;101144.56;5031758;28;20018;-47
2021/07/15 02:30:35;;;;;;;20.33;16.05;;;;;;;18.63;81.00;101144.03;5028910;28;20165;-48
2021/07/15 02:33:09;;;;;;;22.05;16.23;;;;;;;18.66;81.00;101153.50;5031429;28;20375;-48
2021/07/15 02:35:42;;;;;;;20.88;17.02;;;;;;;18.68;81.14;101145.91;5029946;28;20017;-48
2021/07/15 02:38:11;;;;;;;18.17;14.80;;;;;;;18.74;81.19;101144.72;5031723;28;20037;-50
2021/07/15 02:40:37;;;;;;;21.98;16.23;;;;;;;18.78;81.11;101147.66;5030984;28;20036;-47
2021/07/15 02:43:03;;;;;;;21.52;15.88;;;;;;;18.85;80.95;101156.22;5031119;28;20029;-48
2021/07/15 02:45:29;;;;;;;21.65;15.95;;;;;;;18.86;81.01;101164.09;5027434;28;20028;-47
2021/07/15 02:47:54;;;;;;;20.00;14.85;;;;;;;18.89;81.23;101165.41;5030156;28;20029;-47
2021/07/15 02:50:23;;;;;;;20.67;16.63;;;;;;;18.90;81.30;101167.03;5031056;28;20079;-47
2021/07/15 02:52:50;;;;;;;21.00;16.02;;;;;;;18.96;81.31;101169.38;5031694;28;20379;-48
2021/07/15 02:55:17;;;;;;;20.83;16.30;;;;;;;19.00;81.30;101175.81;5031548;28;20112;-48
2021/07/15 02:57:51;;;;;;;22.33;17.25;;;;;;;19.03;81.19;101177.16;5031434;28;20029;-48
2021/07/15 03:00:18;;;;;;;20.92;16.23;;;;;;;19.12;80.99;101177.31;5030905;28;20434;-47
2021/07/15 03:02:51;;;;;;;20.48;16.42;;;;;;;19.13;80.97;101171.56;5028303;28;20033;-48
2021/07/15 03:05:23;;;;;;;19.00;15.93;;;;;;;19.17;80.76;101174.50;5030721;28;20079;-51
2021/07/15 03:07:56;;;;;;;22.95;17.30;;;;;;;19.17;80.97;101166.34;5031406;28;20037;-48
2021/07/15 03:10:23;;;;;;;18.90;15.07;;;;;;;19.18;80.87;101176.09;5030402;28;20036;-48
2021/07/15 03:12:50;;;;;;;21.73;15.32;;;;;;;19.19;80.98;101173.09;5031497;28;20352;-48
2021/07/15 03:15:16;;;;;;;19.27;15.32;;;;;;;19.22;81.17;101171.72;5027741;28;20025;-46
2021/07/15 03:17:48;;;;;;;21.63;15.18;;;;;;;19.18;81.40;101173.41;5030677;28;20048;-47
2021/07/15 03:20:18;;;;;;;20.35;15.90;;;;;;;19.25;81.19;101182.00;5027396;28;20064;-46
2021/07/15 03:22:46;;;;;;;19.88;14.70;;;;;;;19.22;81.51;101177.16;5030451;28;20029;-48
2021/07/15 03:25:15;;;;;;;18.02;14.50;;;;;;;19.24;81.17;101177.66;5031186;28;20021;-48
2021/07/15 03:27:45;;;;;;;17.77;14.45;;;;;;;19.28;81.38;101181.41;5030644;28;20634;-48
2021/07/15 03:30:12;;;;;;;18.17;15.30;;;;;;;19.31;81.10;101181.59;5031522;28;20022;-48
2021/07/15 03:32:38;;;;;;;19.75;15.32;;;;;;;19.34;81.31;101180.22;5030275;28;20127;-48
2021/07/15 03:35:06;;;;;;;19.13;14.88;;;;;;;19.38;81.24;101183.94;5029124;28;20479;-47
2021/07/15 03:37:34;;;;;;;23.38;15.93;;;;;;;19.39;81.61;101182.88;5029203;28;20029;-47
2021/07/15 03:40:00;;;;;;;21.95;16.75;;;;;;;19.41;81.53;101180.66;5027941;28;20040;-47
2021/07/15 03:42:28;;;;;;;19.85;15.15;;;;;;;19.44;81.57;101180.06;5026322;28;20017;-48
2021/07/15 03:44:54;;;;;;;19.40;13.95;;;;;;;19.45;81.61;101181.66;5024653;28;20380;-48
2021/07/15 03:47:22;;;;;;;20.67;15.02;;;;;;;19.48;81.54;101170.19;5025652;28;20490;-46
2021/07/15 03:49:48;;;;;;;18.63;14.23;;;;;;;19.53;81.54;101161.16;5027745;28;20080;-48
2021/07/15 03:52:16;;;;;;;19.52;14.77;;;;;;;19.53;81.51;101153.00;5027237;28;20025;-47
2021/07/15 03:54:43;;;;;;;22.50;15.48;;;;;;;19.52;81.24;101160.34;5027191;28;20056;-48
2021/07/15 03:57:14;;;;;;;17.50;14.68;;;;;;;19.56;81.35;101158.66;5027736;28;20033;-48
2021/07/15 03:59:44;;;;;;;18.23;13.48;;;;;;;19.52;80.89;101160.34;5027693;28;20141;-48
2021/07/15 04:02:12;;;;;;;17.30;14.13;;;;;;;19.59;80.22;101171.69;5026077;28;20057;-48
2021/07/15 04:04:41;;;;;;;15.40;13.32;;;;;;;19.66;79.99;101170.47;5026995;28;20532;-48
2021/07/15 04:07:08;;;;;;;18.25;12.77;;;;;;;19.75;79.57;101174.09;5027618;28;20025;-50
2021/07/15 04:09:35;;;;;;;18.77;13.48;;;;;;;19.80;79.11;101165.88;5026900;28;20463;-49
2021/07/15 04:12:02;;;;;;;19.67;12.38;;;;;;;19.86;78.77;101170.13;5025688;28;20545;-48
2021/07/15 04:14:56;;;;;;;16.70;12.32;;;;;;;19.78;78.75;101165.38;5000766;28;20065;-49
2021/07/15 04:17:24;;;;;;;14.85;11.90;;;;;;;19.74;78.47;101158.91;5026667;28;20120;-48
2021/07/15 04:19:50;;;;;;;15.88;11.95;;;;;;;19.65;78.80;101158.00;5027487;28;20025;-48
2021/07/15 04:22:17;;;;;;;14.82;10.90;;;;;;;19.73;78.49;101168.16;5027168;28;20040;-47
2021/07/15 04:24:43;;;;;;;13.18;11.23;;;;;;;19.82;78.27;101169.09;5008186;28;20563;-47
2021/07/15 04:27:10;;;;;;;18.38;12.27;;;;;;;19.94;78.15;101180.31;5027699;28;20030;-47
2021/07/15 04:29:38;;;;;;;14.73;11.75;;;;;;;20.00;78.15;101160.06;5026903;28;20479;-48
2021/07/15 04:32:10;;;;;;;15.25;11.52;;;;;;;20.04;77.90;101165.72;5028052;28;20439;-48
2021/07/15 04:34:36;;;;;;;16.02;11.82;;;;;;;20.09;77.42;101160.97;5026366;28;20036;-49
2021/07/15 04:37:03;;;;;;;12.90;11.10;;;;;;;19.97;77.87;101171.56;5024085;28;20100;-50
2021/07/15 04:39:29;;;;;;;14.65;11.15;;;;;;;20.10;77.66;101183.53;5028874;28;20458;-49
2021/07/15 04:41:56;;;;;;;13.85;11.00;;;;;;;20.20;77.13;101176.00;5028288;28;20498;-49
2021/07/15 04:44:23;;;;;;;14.75;11.82;;;;;;;20.37;76.77;101171.84;5026537;28;20029;-48
2021/07/15 04:46:51;;;;;;;14.85;12.15;;;;;;;20.46;76.46;101170.84;5028262;28;20036;-49
2021/07/15 04:49:18;;;;;;;15.40;11.55;;;;;;;20.46;76.33;101167.34;5021728;28;20477;-49
2021/07/15 04:51:45;;;;;;;17.85;13.40;;;;;;;20.19;77.21;101174.38;5022997;28;20536;-48
2021/07/15 04:54:12;;;;;;;15.50;12.43;;;;;;;20.03;77.92;101178.50;5027539;28;20410;-48
2021/07/15 04:56:39;;;;;;;18.05;12.88;;;;;;;19.91;79.05;101181.69;5028412;28;20030;-49
2021/07/15 04:59:05;;;;;;;18.98;12.57;;;;;;;20.05;78.38;101179.00;5027750;28;20396;-50
2021/07/15 05:01:31;;;;;;;15.95;11.57;;;;;;;20.05;78.48;101176.28;5025383;28;20395;-52
2021/07/15 05:03:57;;;;;;;15.50;11.32;;;;;;;20.20;77.57;101173.28;5023329;28;20031;-53
2021/07/15 05:06:22;;;;;;;14.00;11.35;;;;;;;20.16;77.76;101180.44;5026342;28;20079;-49
2021/07/15 05:08:48;;;;;;;14.05;11.32;;;;;;;20.27;76.99;101178.28;5026724;28;20295;-50
2021/07/15 05:11:14;;;;;;;16.50;10.93;;;;;;;20.13;77.31;101181.03;5025114;28;20029;-51
2021/07/15 05:13:40;;;;;;;13.25;10.43;;;;;;;20.15;77.30;101180.72;5026221;28;22272;-48
2021/07/15 05:16:06;;;;;;;11.55;10.35;;;;;;;20.26;77.69;101178.59;5027298;28;20395;-49
2021/07/15 05:18:34;;;;;;;10.32;9.07;;;;;;;20.46;76.83;101170.84;5026703;28;20033;-49
2021/07/15 05:21:00;;;;;;;15.70;10.18;;;;;;;20.63;76.40;101156.63;5026561;28;20040;-52
2021/07/15 05:23:26;;;;;;;14.73;9.63;;;;;;;20.73;75.74;101171.94;5027427;28;20646;-49
2021/07/15 05:25:53;;;;;;;14.75;10.02;;;;;;;20.88;74.85;101168.88;5027457;28;20037;-51
2021/07/15 05:28:20;;;;;;;12.55;9.07;;;;;;;20.90;74.78;101171.31;5021371;28;20112;-51
2021/07/15 05:30:45;;;;;;;10.10;8.70;;;;;;;20.91;74.49;101175.63;5026659;28;20033;-48
2021/07/15 05:33:11;;;;;;;10.68;9.35;;;;;;;20.83;75.17;101176.38;5026714;28;20029;-52
2021/07/15 05:35:39;;;;;;;9.98;8.88;;;;;;;20.99;74.26;101177.63;5025939;28;20021;-48
2021/07/15 05:38:05;;;;;;;14.93;8.93;;;;;;;21.13;73.74;101187.38;5026177;28;20102;-50
2021/07/15 05:40:31;;;;;;;11.05;8.75;;;;;;;21.30;73.01;101189.44;5026351;28;20545;-50
2021/07/15 05:42:57;;;;;;;10.02;8.88;;;;;;;21.41;72.85;101187.28;5026925;28;20052;-51
2021/07/15 05:45:23;;;;;;;12.27;8.27;;;;;;;21.59;72.47;101189.03;5026708;28;20033;-49
2021/07/15 05:47:48;;;;;;;12.00;8.02;;;;;;;21.75;71.87;101197.63;5026644;28;20383;-51
2021/07/15 05:50:14;;;;;;;9.43;8.18;;;;;;;21.93;71.26;101193.88;5027361;28;20028;-49
2021/07/15 05:52:39;;;;;;;13.80;8.10;;;;;;;21.83;70.84;101205.03;5025484;28;20269;-50
2021/07/15 05:55:05;;;;;;;10.88;8.05;;;;;;;22.11;70.27;101202.16;5026061;28;20025;-50
2021/07/15 05:57:33;;;;;;;10.52;7.43;;;;;;;22.40;69.73;101194.22;5025027;28;20029;-49
2021/07/15 05:59:59;;;;;;;9.32;7.60;;;;;;;22.61;68.98;101197.97;5025181;28;20040;-54
2021/07/15 06:02:24;;;;;;;9.00;8.10;;;;;;;22.70;68.19;101189.81;5028347;28;20087;-52
2021/07/15 06:04:50;;;;;;;8.77;7.78;;;;;;;22.43;68.31;101187.34;5026380;28;20029;-49
2021/07/15 06:07:15;;;;;;;9.85;7.60;;;;;;;22.31;68.75;101188.75;5026183;28;20029;-49
2021/07/15 06:09:41;;;;;;;10.50;7.68;;;;;;;22.65;68.14;101189.16;5025091;28;20120;-48
2021/07/15 06:12:07;;;;;;;9.40;7.82;;;;;;;22.83;67.71;101186.19;5025053;28;20025;-48
2021/07/15 06:14:32;;;;;;;9.85;7.95;;;;;;;22.74;68.00;101192.72;5026333;28;20028;-49
2021/07/15 06:16:58;;;;;;;8.10;7.25;;;;;;;22.71;67.65;101190.63;5027324;28;20406;-49
2021/07/15 06:19:23;;;;;;;11.45;8.07;;;;;;;22.78;67.00;101199.13;5026104;28;20056;-52
2021/07/15 06:21:49;;;;;;;9.70;7.95;;;;;;;22.99;67.19;101188.44;5008208;28;20116;-51
2021/07/15 06:24:14;;;;;;;9.40;7.82;;;;;;;23.31;66.93;101193.41;5025686;28;20103;-50
2021/07/15 06:26:40;;;;;;;9.13;8.13;;;;;;;23.65;65.83;101195.31;5025877;28;20029;-50
2021/07/15 06:29:05;;;;;;;11.23;8.40;;;;;;;23.68;65.29;101197.41;5026160;28;20041;-51
2021/07/15 06:31:32;;;;;;;10.02;8.38;;;;;;;23.84;65.14;101199.63;5006494;28;20030;-50
2021/07/15 06:33:59;;;;;;;9.32;8.07;;;;;;;23.94;65.18;101200.06;5026848;28;20217;-52
2021/07/15 06:36:27;;;;;;;9.07;7.68;;;;;;;24.20;64.73;101199.97;5021444;28;20060;-49
2021/07/15 06:38:55;;;;;;;11.68;7.82;;;;;;;24.20;64.44;101208.19;5025658;28;20029;-49
2021/07/15 06:41:21;;;;;;;9.77;7.30;;;;;;;23.92;64.35;101196.06;5025488;28;20022;-51
2021/07/15 06:43:46;;;;;;;9.20;7.93;;;;;;;23.76;64.86;101195.78;5025593;28;20036;-50
2021/07/15 06:46:12;;;;;;;11.18;7.93;;;;;;;24.20;64.31;101204.63;5026069;28;20021;-48
2021/07/15 06:48:37;;;;;;;10.50;7.82;;;;;;;24.06;63.87;101202.13;5023063;28;20495;-48
2021/07/15 06:51:03;;;;;;;8.82;7.28;;;;;;;24.49;63.40;101204.69;5025824;28;20040;-49
2021/07/15 06:53:28;;;;;;;11.20;7.55;;;;;;;24.79;63.51;101200.00;5026079;28;20051;-50
2021/07/15 06:55:54;;;;;;;8.48;7.60;;;;;;;24.41;62.78;101200.84;5026521;28;20075;-51
2021/07/15 06:58:19;;;;;;;9.98;7.30;;;;;;;24.27;63.30;101208.50;5019973;28;20021;-49
2021/07/15 07:00:45;;;;;;;10.70;7.97;;;;;;;24.02;62.75;101206.63;5026279;28;20071;-50
2021/07/15 07:03:12;;;;;;;11.18;7.45;;;;;;;24.18;63.29;101202.22;5024653;28;20025;-49
2021/07/15 07:05:39;;;;;;;10.95;8.20;;;;;;;24.41;62.69;101208.25;5025198;28;20033;-52
2021/07/15 07:08:06;;;;;;;12.30;7.60;;;;;;;24.47;62.43;101212.44;5026308;28;20033;-48
2021/07/15 07:10:31;;;;;;;10.07;7.90;;;;;;;24.55;61.62;101202.56;5024267;28;20150;-49
2021/07/15 07:12:57;;;;;;;9.35;7.53;;;;;;;24.89;61.26;101202.34;5028765;28;20688;-50
2021/07/15 07:15:23;;;;;;;7.82;7.05;;;;;;;25.36;60.31;101204.09;5032177;28;20021;-50
2021/07/15 07:17:48;;;;;;;8.65;7.53;;;;;;;25.48;59.51;101193.94;5030207;28;20467;-51
2021/07/15 07:20:15;;;;;;;8.98;7.32;;;;;;;25.87;58.80;101189.06;5028691;28;20083;-50
2021/07/15 07:22:44;;;;;;;10.45;7.50;;;;;;;26.32;57.21;101190.91;5028611;28;20033;-49
2021/07/15 07:25:11;;;;;;;11.82;7.75;;;;;;;26.78;57.54;101189.66;5027677;28;20107;-51
2021/07/15 07:27:38;;;;;;;10.57;9.27;;;;;;;27.18;56.17;101181.41;5029359;28;20076;-49
2021/07/15 07:30:05;;;;;;;14.43;8.50;;;;;;;27.26;56.04;101185.97;5032113;28;20036;-49
2021/07/15 07:32:31;;;;;;;9.75;8.60;;;;;;;27.12;55.25;101180.06;5028451;28;20464;-49
2021/07/15 07:34:57;;;;;;;12.40;9.25;;;;;;;27.00;56.06;101182.84;5027426;28;20056;-52
2021/07/15 07:37:22;;;;;;;9.45;8.13;;;;;;;26.84;55.74;101176.47;5024322;28;20502;-52
2021/07/15 07:39:48;;;;;;;10.25;8.63;;;;;;;26.56;55.40;101176.38;5031831;28;20053;-50
2021/07/15 07:42:13;;;;;;;13.13;9.25;;;;;;;26.52;55.92;101173.53;5029263;28;20036;-49
2021/07/15 07:44:39;;;;;;;11.00;8.40;;;;;;;26.89;56.38;101170.72;5027882;28;20038;-50
2021/07/15 07:47:04;;;;;;;11.43;8.52;;;;;;;27.24;55.57;101168.22;5027710;28;20025;-52
2021/07/15 07:49:30;;;;;;;9.13;7.93;;;;;;;27.65;55.47;101167.00;5026574;28;20036;-49
2021/07/15 07:51:55;;;;;;;9.55;8.02;;;;;;;27.86;54.66;101177.78;5028493;28;20026;-51
2021/07/15 07:54:21;;;;;;;9.70;7.68;;;;;;;28.06;53.81;101170.38;5026066;28;20411;-53
2021/07/15 07:56:47;;;;;;;8.70;7.80;;;;;;;27.86;53.59;101169.50;5030114;28;20030;-50
2021/07/15 07:59:12;;;;;;;9.70;7.55;;;;;;;28.16;53.66;101173.38;5029994;28;20460;-50
2021/07/15 08:01:39;;;;;;;10.80;7.75;;;;;;;28.47;52.97;101178.09;5026809;28;20033;-50
2021/07/15 08:04:06;;;;;;;9.45;6.57;;;;;;;28.56;52.99;101192.47;5028713;28;20025;-56
2021/07/15 08:06:34;;;;;;;8.10;7.22;;;;;;;28.59;53.16;101186.25;5028035;28;20104;-51
2021/07/15 08:09:04;;;;;;;8.15;7.30;;;;;;;28.80;52.92;101174.88;5023662;28;20034;-51
2021/07/15 08:11:31;;;;;;;8.45;7.20;;;;;;;28.87;52.19;101169.53;5025340;28;20029;-50
2021/07/15 08:13:56;;;;;;;8.40;6.75;;;;;;;28.84;52.01;101166.69;5031943;28;20124;-52
2021/07/15 08:16:22;;;;;;;10.63;6.47;;;;;;;28.96;52.25;101168.53;5026758;28;20108;-52
2021/07/15 08:18:47;;;;;;;7.95;7.15;;;;;;;29.11;51.63;101162.94;5003704;28;20034;-49
2021/07/15 08:21:20;;;;;;;9.00;6.93;;;;;;;29.30;51.38;101162.13;5026665;28;20033;-52
2021/07/15 08:23:46;;;;;;;7.15;6.45;;;;;;;29.11;51.20;101157.44;5027691;28;20057;-51
2021/07/15 08:26:11;;;;;;;11.45;6.68;;;;;;;29.29;51.07;101165.25;5027338;28;20040;-53
2021/07/15 08:28:38;;;;;;;10.10;6.95;;;;;;;29.45;50.53;101171.50;5025065;28;20025;-53
2021/07/15 08:31:03;;;;;;;8.20;6.80;;;;;;;29.55;49.17;101172.88;5027635;28;20045;-52
2021/07/15 08:33:28;;;;;;;12.43;6.20;;;;;;;29.10;49.57;101171.59;5024940;28;20036;-51
2021/07/15 08:35:56;;;;;;;7.05;6.18;;;;;;;28.88;48.65;101175.84;5027907;28;20119;-50
2021/07/15 08:38:22;;;;;;;8.55;7.05;;;;;;;29.17;48.73;101178.03;5025024;28;20029;-54
2021/07/15 08:40:48;;;;;;;7.38;6.45;;;;;;;29.53;49.62;101180.72;5027655;28;20041;-50
2021/07/15 08:43:15;;;;;;;9.30;6.30;;;;;;;29.42;48.23;101186.00;5026836;28;20052;-51
2021/07/15 08:45:41;;;;;;;10.07;6.53;;;;;;;29.89;48.88;101174.66;5027577;28;20029;-50
2021/07/15 08:48:10;;;;;;;7.97;6.47;;;;;;;30.23;47.71;101181.16;5004268;28;20026;-50
2021/07/15 08:50:36;;;;;;;8.50;6.45;;;;;;;30.48;48.68;101180.72;5026635;28;20032;-52
2021/07/15 08:53:02;;;;;;;8.07;6.68;;;;;;;30.70;47.95;101171.56;5027643;28;20040;-53
2021/07/15 08:58:19;;;;;;;6.95;6.18;;;;;;;30.93;45.92;101183.38;5026546;28;20091;-50
2021/07/15 09:00:46;;;;;;;7.25;6.53;;;;;;;30.62;47.15;101170.69;5027664;28;20025;-51
2021/07/15 09:03:12;;;;;;;8.20;6.00;;;;;;;30.53;46.34;101180.44;5029451;28;20499;-51
2021/07/15 09:05:38;;;;;;;7.65;5.80;;;;;;;30.67;46.27;101184.19;5026482;28;20281;-54
2021/07/15 09:08:05;;;;;;;6.35;5.35;;;;;;;30.76;46.09;101188.66;5027202;28;20116;-50
2021/07/15 09:10:31;;;;;;;6.13;5.47;;;;;;;30.81;46.15;101183.59;5023899;28;20028;-55
2021/07/15 09:13:00;;;;;;;8.43;5.72;;;;;;;30.63;44.71;101194.41;5027262;28;20026;-51
2021/07/15 09:15:26;;;;;;;8.60;6.18;;;;;;;30.51;45.93;101193.78;5025923;28;20025;-53
2021/07/15 09:17:51;;;;;;;7.45;6.50;;;;;;;30.66;46.15;101198.41;5027328;28;20498;-50
2021/07/15 09:20:22;;;;;;;8.30;6.93;;;;;;;30.71;46.81;101202.81;5026491;28;20337;-52
2021/07/15 09:22:59;;;;;;;8.25;6.38;;;;;;;30.38;47.06;101199.56;5026560;28;20071;-54
2021/07/15 09:25:25;;;;;;;8.10;6.97;;;;;;;30.61;46.54;101207.00;5024820;28;20448;-52
2021/07/15 09:27:51;;;;;;;9.77;6.78;;;;;;;30.62;45.82;101200.31;5026657;28;20611;-54
2021/07/15 09:30:17;;;;;;;8.05;6.30;;;;;;;30.60;46.03;101202.63;5026312;28;20236;-53
2021/07/15 09:33:00;;;;;;;12.07;6.50;;;;;;;30.71;45.44;101197.28;5023369;28;20041;-50
2021/07/15 09:35:26;;;;;;;8.40;6.88;;;;;;;30.94;45.01;101193.25;5024952;28;20059;-52
2021/07/15 09:37:54;;;;;;;9.45;6.93;;;;;;;30.98;45.38;101185.00;5028790;28;20045;-52
2021/07/15 09:40:37;;;;;;;8.35;7.30;;;;;;;30.84;45.39;101196.66;5024528;28;20111;-52
2021/07/15 09:43:33;;;;;;;9.77;6.35;;;;;;;31.01;44.58;101195.31;5023441;28;20486;-52
2021/07/15 09:46:20;;;;;;;9.93;6.97;;;;;;;31.15;44.54;101189.16;5023468;28;20030;-55
2021/07/15 09:48:49;;;;;;;11.18;8.15;;;;;;;31.29;42.89;101186.59;5026268;28;20033;-51
2021/07/15 09:51:17;;;;;;;9.82;7.10;;;;;;;31.16;43.88;101185.22;5026143;28;20427;-51
2021/07/15 09:53:43;;;;;;;11.18;7.30;;;;;;;31.02;44.80;101190.56;5020911;28;20116;-52
2021/07/15 09:56:16;;;;;;;14.02;7.72;;;;;;;30.96;45.20;101199.22;5024876;28;20108;-52
2021/07/15 09:58:50;;;;;;;10.20;8.07;;;;;;;30.85;45.15;101192.72;5025904;28;20025;-50
2021/07/15 10:01:21;;;;;;;8.23;7.00;;;;;;;30.77;44.84;101196.59;5025973;28;20314;-52
2021/07/15 10:03:51;;;;;;;9.85;7.80;;;;;;;30.88;43.91;101194.78;5026260;28;20291;-54
2021/07/15 10:06:18;;;;;;;18.08;8.50;;;;;;;30.43;44.28;101192.13;5026023;28;20083;-53
2021/07/15 10:08:46;;;;;;;9.75;7.93;;;;;;;30.61;45.36;101199.53;5025177;28;20040;-52
2021/07/15 10:11:32;;;;;;;8.52;7.15;;;;;;;30.85;44.61;101200.22;5024724;28;20258;-53
2021/07/15 10:14:03;;;;;;;10.52;7.75;;;;;;;29.49;45.95;101199.97;5004756;28;20083;-53
2021/07/15 10:16:30;;;;;;;8.00;7.25;;;;;;;29.87;45.98;101195.53;5025437;28;20021;-50
2021/07/15 10:18:56;;;;;;;9.45;7.75;;;;;;;29.65;45.97;101199.88;5026949;28;20499;-52
2021/07/15 10:21:27;;;;;;;10.23;7.30;;;;;;;29.41;47.67;101196.25;5024739;28;20041;-55
2021/07/15 10:23:53;;;;;;;8.60;7.75;;;;;;;29.36;47.27;101195.75;5026336;28;20032;-52
2021/07/15 10:26:18;;;;;;;8.48;7.13;;;;;;;29.59;47.24;101193.84;5023740;28;20037;-55
2021/07/15 10:28:46;;;;;;;12.88;8.25;;;;;;;30.20;47.03;101192.97;5025596;28;20036;-49
2021/07/15 10:31:13;;;;;;;8.50;7.20;;;;;;;30.49;46.17;101187.84;5025667;28;20033;-51
2021/07/15 10:33:41;;;;;;;9.40;7.15;;;;;;;30.57;45.05;101186.78;5024635;28;20448;-50
2021/07/15 10:36:07;;;;;;;11.95;7.85;;;;;;;30.89;45.17;101193.59;5001896;28;20129;-52
2021/07/15 10:38:48;;;;;;;9.07;7.45;;;;;;;31.05;44.38;101189.81;5024713;28;20034;-52
2021/07/15 10:41:14;;;;;;;11.70;7.90;;;;;;;30.89;44.02;101195.56;5028065;28;20617;-52
2021/07/15 10:43:41;;;;;;;9.00;7.72;;;;;;;30.71;44.68;101191.75;5024895;28;20124;-52
2021/07/15 10:46:07;;;;;;;12.35;8.20;;;;;;;30.69;45.28;101194.88;5025086;28;20025;-50
2021/07/15 10:48:34;;;;;;;8.43;7.30;;;;;;;31.23;45.43;101188.06;5027676;28;20609;-50
2021/07/15 10:51:01;;;;;;;9.80;7.80;;;;;;;31.64;44.45;101182.59;5029265;28;20038;-52
2021/07/15 10:53:33;;;;;;;9.82;8.25;;;;;;;31.12;43.60;101190.72;5027975;28;20029;-52
2021/07/15 10:55:59;;;;;;;10.75;7.38;;;;;;;31.61;43.61;101186.94;5026196;28;20060;-51
2021/07/15 10:58:43;;;;;;;8.77;7.53;;;;;;;31.90;43.20;101188.00;5028196;28;20044;-51
2021/07/15 11:01:10;;;;;;;13.67;7.27;;;;;;;32.42;43.31;101188.81;5025977;28;20270;-51
2021/07/15 11:03:35;;;;;;;11.77;7.00;;;;;;;33.00;42.73;101193.50;5028455;28;20071;-51
2021/07/15 11:06:01;;;;;;;10.52;6.65;;;;;;;33.32;41.53;101197.22;5028906;28;20041;-53
2021/07/15 11:08:45;;;;;;;12.25;6.78;;;;;;;33.30;40.25;101204.31;5028178;28;20438;-52
2021/07/15 11:11:11;;;;;;;8.00;6.93;;;;;;;33.41;39.95;101193.28;5027140;28;20432;-51
2021/07/15 11:13:37;;;;;;;8.82;7.25;;;;;;;33.41;39.25;101193.28;5026519;28;20029;-50
2021/07/15 11:16:05;;;;;;;9.70;7.40;;;;;;;32.86;38.59;101188.72;5027311;28;20028;-50
2021/07/15 11:19:01;;;;;;;14.23;7.07;;;;;;;32.87;39.64;101186.72;5026595;28;20021;-51
2021/07/15 11:21:27;;;;;;;11.50;6.45;;;;;;;32.80;39.08;101187.47;5027777;28;20034;-50
2021/07/15 11:24:18;;;;;;;10.48;6.43;;;;;;;32.67;38.19;101184.19;5028948;28;20037;-50